Agoura Hills, California
Current Conditions -  °F | °C
As of 6:51 PM on Friday 19 Dec 2014 (Local Time) from KVNY Reporting Station
Clear Clear  
Wind Chill: 14°   Ceiling: Unl
Heat Index: 14°   Visibility: 10mi
Dew Point:   Wind: 3mph
Humidity: 69%   Direction: 290°WNW
Pressure: 30.18"   Gusts: NA
Location:  34.15°N, 118.77°W
Report Text: KVNY 200251Z 29003KT 10SM CLR 14/08 A3018 RMK AO2 SLP218 T01390083 53014
Loading
Personal Weather Stations






























Interactive Weather Map New forecast layout! Learn more

10-Day Weather Forecast

Advertisements
Track Severe Weather on mobile